createdAt,value
2019-04-26T00:01:37.731Z,96457.85
2019-04-26T00:04:45.084Z,96454.33
2019-04-26T00:07:52.706Z,96462.66
2019-04-26T00:11:14.342Z,96466.20
2019-04-26T00:14:55.239Z,96464.42
2019-04-26T00:18:02.183Z,96471.13
2019-04-26T00:21:09.596Z,96468.77
2019-04-26T00:24:19.348Z,96473.95
2019-04-26T00:27:26.227Z,96471.47
2019-04-26T00:30:32.855Z,96473.64
2019-04-26T00:33:39.541Z,96472.92
2019-04-26T00:36:48.606Z,96471.05
2019-04-26T00:39:56.204Z,96464.63
2019-04-26T00:43:06.355Z,96462.00
2019-04-26T00:46:14.706Z,96459.56
2019-04-26T00:49:24.743Z,96454.00
2019-04-26T00:52:31.929Z,96456.25
2019-04-26T00:55:38.842Z,96451.63
2019-04-26T00:58:45.987Z,96449.95
2019-04-26T01:01:57.294Z,96448.87
2019-04-26T01:05:04.035Z,96446.19
2019-04-26T01:08:10.609Z,96448.45
2019-04-26T01:11:17.671Z,96452.42
2019-04-26T01:14:24.402Z,96449.11
2019-04-26T01:17:31.083Z,96447.86
2019-04-26T01:20:40.869Z,96441.49
2019-04-26T01:23:50.649Z,96445.39
2019-04-26T01:27:00.232Z,96442.66
2019-04-26T01:30:11.509Z,96442.37
2019-04-26T01:33:18.753Z,96446.75
2019-04-26T01:36:29.126Z,96447.38
2019-04-26T01:39:38.441Z,96440.39
2019-04-26T01:42:54.441Z,96441.16
2019-04-26T01:46:10.372Z,96439.63
2019-04-26T01:49:21.341Z,96437.39
2019-04-26T01:52:29.737Z,96432.85
2019-04-26T01:55:36.576Z,96432.02
2019-04-26T01:58:43.550Z,96438.02
2019-04-26T02:02:08.329Z,96440.36
2019-04-26T02:05:22.588Z,96440.26
2019-04-26T02:08:30.374Z,96438.20
2019-04-26T02:11:37.387Z,96435.51
2019-04-26T02:14:44.178Z,96429.56
2019-04-26T02:17:54.130Z,96430.67
2019-04-26T02:21:16.344Z,96423.48
2019-04-26T02:24:37.923Z,96427.14
2019-04-26T02:27:44.668Z,96425.75
2019-04-26T02:30:51.593Z,96421.36
2019-04-26T02:33:59.102Z,96424.91
2019-04-26T02:37:08.978Z,96428.61
2019-04-26T02:40:18.730Z,96427.11
2019-04-26T02:43:28.607Z,96433.53
2019-04-26T02:46:48.862Z,96432.45
2019-04-26T02:50:03.093Z,96425.37
2019-04-26T02:53:39.693Z,96421.84
2019-04-26T02:56:48.559Z,96408.12
2019-04-26T03:00:05.531Z,96400.91
2019-04-26T03:03:14.137Z,96400.95
2019-04-26T03:06:20.928Z,96406.79
2019-04-26T03:09:31.355Z,96405.02
2019-04-26T03:12:43.205Z,96403.89
2019-04-26T03:16:10.849Z,96403.22
2019-04-26T03:19:36.207Z,96392.67
2019-04-26T03:23:16.862Z,96394.91
2019-04-26T03:26:48.343Z,96395.30
2019-04-26T03:30:22.098Z,96390.93
2019-04-26T03:34:13.877Z,96391.75
2019-04-26T03:37:44.523Z,96400.41
2019-04-26T03:41:08.909Z,96409.39
2019-04-26T03:44:38.853Z,96403.92
2019-04-26T03:48:09.627Z,96400.96
2019-04-26T03:51:45.283Z,96402.33
2019-04-26T03:54:56.501Z,96401.83
2019-04-26T03:58:08.730Z,96412.78
2019-04-26T04:01:16.835Z,96409.30
2019-04-26T04:04:37.726Z,96411.42
2019-04-26T04:07:50.958Z,96412.16
2019-04-26T04:11:05.359Z,96407.59
2019-04-26T04:14:40.500Z,96408.66
2019-04-26T04:18:12.444Z,96417.98
2019-04-26T04:21:47.057Z,96426.01
2019-04-26T04:24:58.816Z,96424.11
2019-04-26T04:28:27.393Z,96421.63
2019-04-26T04:31:42.160Z,96422.98
2019-04-26T04:34:53.713Z,96430.05
2019-04-26T04:38:11.409Z,96430.17
2019-04-26T04:41:34.199Z,96431.45
2019-04-26T04:45:06.177Z,96435.31
2019-04-26T04:48:22.035Z,96436.28
2019-04-26T04:52:27.451Z,96447.91
2019-04-26T04:56:16.787Z,96455.03
2019-04-26T05:00:00.726Z,96457.79
2019-04-26T05:03:28.914Z,96450.30
2019-04-26T05:07:16.988Z,96459.73
2019-04-26T05:10:37.003Z,96468.77
2019-04-26T05:14:03.989Z,96469.73
2019-04-26T05:17:59.292Z,96478.50
2019-04-26T05:21:30.545Z,96479.45
2019-04-26T05:24:59.884Z,96483.28
2019-04-26T05:28:19.299Z,96489.16
2019-04-26T05:32:29.545Z,96499.36
2019-04-26T05:37:06.860Z,96506.03
2019-04-26T05:40:42.852Z,96502.63
2019-04-26T05:44:17.711Z,96494.89
2019-04-26T05:48:05.241Z,96499.71
2019-04-26T05:52:14.127Z,96514.89
2019-04-26T05:56:38.263Z,96521.58
2019-04-26T06:00:24.665Z,96528.13
2019-04-26T06:04:25.274Z,96523.67
2019-04-26T06:08:31.230Z,96516.78
2019-04-26T06:11:42.744Z,96521.39
2019-04-26T06:15:43.501Z,96516.89
2019-04-26T06:19:18.091Z,96530.07
2019-04-26T06:22:59.714Z,96543.83
2019-04-26T06:27:14.152Z,96549.56
2019-04-26T06:30:45.062Z,96555.73
2019-04-26T06:34:07.687Z,96562.59
2019-04-26T06:37:57.310Z,96570.65
2019-04-26T06:42:00.778Z,96577.39
2019-04-26T06:45:43.774Z,96575.30
2019-04-26T06:49:31.090Z,96572.72
2019-04-26T06:52:59.672Z,96578.11
2019-04-26T06:56:53.023Z,96573.92
2019-04-26T07:00:20.325Z,96573.81
2019-04-26T07:03:49.272Z,96567.89
2019-04-26T07:07:18.907Z,96566.11
2019-04-26T07:11:11.804Z,96571.03
2019-04-26T07:15:03.824Z,96558.08
2019-04-26T07:18:46.825Z,96557.19
2019-04-26T07:22:34.744Z,96565.70
2019-04-26T07:26:45.329Z,96570.50
2019-04-26T07:30:23.536Z,96577.15
2019-04-26T07:34:32.249Z,96571.43
2019-04-26T07:38:52.947Z,96577.42
2019-04-26T07:42:53.600Z,96577.66
2019-04-26T07:46:43.624Z,96576.91
2019-04-26T07:50:57.121Z,96580.52
2019-04-26T07:55:18.369Z,96576.20
2019-04-26T07:59:27.273Z,96578.41
2019-04-26T08:02:57.349Z,96575.51
2019-04-26T08:06:36.868Z,96576.27
2019-04-26T08:09:59.905Z,96575.40
2019-04-26T08:13:13.756Z,96573.73
2019-04-26T08:16:56.787Z,96575.42
2019-04-26T08:20:28.196Z,96567.77
2019-04-26T08:23:44.544Z,96566.48
2019-04-26T08:27:13.637Z,96568.72
2019-04-26T08:30:19.301Z,96575.08
2019-04-26T08:33:35.410Z,96571.32
2019-04-26T08:37:06.718Z,96575.65
2019-04-26T08:40:23.296Z,96572.05
2019-04-26T08:43:49.981Z,96583.31
2019-04-26T08:47:14.081Z,96576.34
2019-04-26T08:50:20.748Z,96583.79
2019-04-26T08:53:31.870Z,96578.95
2019-04-26T08:56:46.676Z,96598.85
2019-04-26T08:59:57.838Z,96594.16
2019-04-26T09:03:18.455Z,96599.09
2019-04-26T09:06:49.845Z,96596.49
2019-04-26T09:10:01.540Z,96598.77
2019-04-26T09:13:11.576Z,96590.50
2019-04-26T09:16:21.118Z,96595.20
2019-04-26T09:19:30.540Z,96594.04
2019-04-26T09:23:04.948Z,96585.21
2019-04-26T09:26:14.936Z,96588.38
2019-04-26T09:29:31.777Z,96602.91
2019-04-26T09:33:03.556Z,96604.19
2019-04-26T09:36:10.133Z,96617.16
2019-04-26T09:39:17.445Z,96614.88
2019-04-26T09:42:41.766Z,96616.91
2019-04-26T09:45:59.590Z,96612.88
2019-04-26T09:49:29.186Z,96601.11
2019-04-26T09:52:46.113Z,96608.41
2019-04-26T09:55:55.684Z,96607.34
2019-04-26T09:59:05.700Z,96612.17
2019-04-26T10:02:11.423Z,96609.34
2019-04-26T10:05:22.162Z,96611.09
2019-04-26T10:08:26.826Z,96610.78
2019-04-26T10:11:39.587Z,96602.70
2019-04-26T10:15:12.316Z,96598.70
2019-04-26T10:18:20.327Z,96603.94
2019-04-26T10:21:27.736Z,96607.52
2019-04-26T10:24:34.672Z,96607.29
2019-04-26T10:27:44.461Z,96605.89
2019-04-26T10:30:51.450Z,96607.57
2019-04-26T10:33:58.215Z,96603.49
2019-04-26T10:41:08.336Z,96600.38
2019-04-26T10:44:14.876Z,96598.42
2019-04-26T10:47:21.405Z,96600.47
2019-04-26T10:50:28.787Z,96595.45
2019-04-26T10:53:44.481Z,96602.26
2019-04-26T10:56:59.624Z,96609.73
2019-04-26T11:00:14.152Z,96616.39
2019-04-26T11:03:19.514Z,96617.46
2019-04-26T11:06:27.873Z,96617.09
2019-04-26T11:09:35.146Z,96605.75
2019-04-26T11:12:44.829Z,96607.33
2019-04-26T11:15:52.791Z,96605.22
2019-04-26T11:19:01.107Z,96599.51
2019-04-26T11:22:07.994Z,96599.66
2019-04-26T11:25:14.698Z,96598.53
2019-04-26T11:28:22.908Z,96594.16
2019-04-26T11:31:30.800Z,96601.02
2019-04-26T11:34:42.822Z,96606.61
2019-04-26T11:37:50.709Z,96610.20
2019-04-26T11:41:05.779Z,96603.55
2019-04-26T11:44:06.160Z,96598.59
2019-04-26T11:47:12.939Z,96593.28
2019-04-26T11:50:20.858Z,96597.92
2019-04-26T11:53:27.353Z,96597.97
2019-04-26T11:56:37.465Z,96593.50
2019-04-26T11:59:44.193Z,96591.81
2019-04-26T12:02:52.273Z,96596.75
2019-04-26T12:06:17.713Z,96588.89
2019-04-26T12:09:49.246Z,96579.33
2019-04-26T12:13:05.126Z,96583.05
2019-04-26T12:16:04.218Z,96585.84
2019-04-26T12:19:14.309Z,96583.98
2019-04-26T12:22:20.025Z,96603.64
2019-04-26T12:25:26.744Z,96614.75
2019-04-26T12:28:36.346Z,96616.16
2019-04-26T12:31:43.042Z,96612.69
2019-04-26T12:34:52.157Z,96609.41
2019-04-26T12:38:02.844Z,96623.58
2019-04-26T12:41:11.629Z,96622.38
2019-04-26T12:44:19.289Z,96622.49
2019-04-26T12:47:34.529Z,96625.34
2019-04-26T12:50:39.443Z,96625.59
2019-04-26T12:53:47.354Z,96631.08
2019-04-26T12:56:55.605Z,96628.69
2019-04-26T13:00:03.547Z,96623.47
2019-04-26T13:03:20.023Z,96635.02
2019-04-26T13:06:19.076Z,96636.84
2019-04-26T13:09:26.735Z,96632.57
2019-04-26T13:12:44.264Z,96632.30
2019-04-26T13:15:56.815Z,96625.27
2019-04-26T13:19:06.604Z,96633.63
2019-04-26T13:22:14.283Z,96627.09
2019-04-26T13:25:26.509Z,96622.38
2019-04-26T13:28:29.499Z,96617.37
2019-04-26T13:31:38.838Z,96616.49
2019-04-26T13:34:45.516Z,96615.41
2019-04-26T13:37:51.982Z,96612.03
2019-04-26T13:40:59.841Z,96611.30
2019-04-26T13:44:07.200Z,96606.12
2019-04-26T13:47:47.666Z,96614.38
2019-04-26T13:51:01.280Z,96628.34
2019-04-26T13:54:07.011Z,96633.41
2019-04-26T13:57:13.552Z,96628.64
2019-04-26T14:00:26.439Z,96638.05
2019-04-26T14:03:34.551Z,96645.63
2019-04-26T14:06:41.054Z,96648.37
2019-04-26T14:09:48.153Z,96644.12
2019-04-26T14:12:54.659Z,96647.54
2019-04-26T14:16:01.260Z,96654.34
2019-04-26T14:19:14.448Z,96653.03
2019-04-26T14:22:20.172Z,96652.00
2019-04-26T14:25:32.050Z,96656.53
2019-04-26T14:28:38.728Z,96658.58
2019-04-26T14:31:47.249Z,96665.05
2019-04-26T14:34:53.494Z,96672.91
2019-04-26T14:38:00.154Z,96672.56
2019-04-26T14:41:06.925Z,96680.13
2019-04-26T14:44:15.586Z,96679.86
2019-04-26T14:47:22.049Z,96678.33
2019-04-26T14:50:32.088Z,96673.73
2019-04-26T14:53:38.067Z,96674.34
2019-04-26T14:56:52.120Z,96672.54
2019-04-26T14:59:58.504Z,96681.36
2019-04-26T15:03:17.393Z,96680.76
2019-04-26T15:06:29.595Z,96682.35
2019-04-26T15:09:36.735Z,96678.87
2019-04-26T15:12:48.797Z,96675.42
2019-04-26T15:15:55.111Z,96677.73
2019-04-26T15:19:01.764Z,96679.93
2019-04-26T15:22:10.305Z,96680.98
2019-04-26T15:25:19.763Z,96690.70
2019-04-26T15:28:27.043Z,96687.55
2019-04-26T15:31:34.178Z,96702.53
2019-04-26T15:34:40.842Z,96703.64
2019-04-26T15:37:47.317Z,96707.03
2019-04-26T15:41:16.727Z,96703.23
2019-04-26T15:49:15.699Z,96725.17
2019-04-26T15:52:23.544Z,96733.41
2019-04-26T15:55:33.854Z,96740.02
2019-04-26T15:58:45.925Z,96759.16
2019-04-26T16:01:52.147Z,96783.70
2019-04-26T16:04:58.775Z,96782.86
2019-04-26T16:08:07.288Z,96779.52
2019-04-26T16:11:14.043Z,96778.28
2019-04-26T16:14:26.391Z,96781.23
2019-04-26T16:17:28.961Z,96788.28
2019-04-26T16:20:48.838Z,96789.71
2019-04-26T16:23:57.483Z,96798.86
2019-04-26T16:27:08.455Z,96806.73
2019-04-26T16:30:35.409Z,96816.84
2019-04-26T16:33:41.069Z,96821.91
2019-04-26T16:36:47.646Z,96829.09
2019-04-26T16:39:56.348Z,96823.95
2019-04-26T16:43:04.159Z,96812.50
2019-04-26T16:46:12.589Z,96817.42
2019-04-26T16:49:19.916Z,96824.99
2019-04-26T16:52:33.326Z,96831.55
2019-04-26T16:55:48.887Z,96841.17
2019-04-26T16:58:50.168Z,96846.28
2019-04-26T17:02:01.433Z,96846.97
2019-04-26T17:05:19.084Z,96841.28
2019-04-26T17:08:18.988Z,96850.20
2019-04-26T17:11:23.068Z,96854.17
2019-04-26T17:14:29.963Z,96864.41
2019-04-26T17:17:37.032Z,96873.04
2019-04-26T17:20:44.938Z,96876.89
2019-04-26T17:24:12.207Z,96889.30
2019-04-26T17:27:19.652Z,96900.45
2019-04-26T17:30:26.589Z,96895.22
2019-04-26T17:33:35.551Z,96911.02
2019-04-26T17:36:46.482Z,96925.84
2019-04-26T17:39:57.440Z,96933.55
2019-04-26T17:43:05.437Z,96932.58
2019-04-26T17:46:14.575Z,96939.38
2019-04-26T17:49:26.986Z,96935.36
2019-04-26T17:52:35.823Z,96933.14
2019-04-26T17:55:37.819Z,96944.63
2019-04-26T17:58:52.466Z,96943.80
2019-04-26T18:02:00.902Z,96922.69
2019-04-26T18:05:03.601Z,96919.00
2019-04-26T18:08:33.744Z,96924.97
2019-04-26T18:11:24.757Z,96935.67
2019-04-26T18:14:30.319Z,96938.20
2019-04-26T18:18:17.407Z,96945.78
2019-04-26T18:21:49.640Z,96958.77
2019-04-26T18:24:55.786Z,96974.13
2019-04-26T18:28:04.499Z,96984.00
2019-04-26T18:31:14.824Z,96987.53
2019-04-26T18:34:21.118Z,96991.81
2019-04-26T18:37:27.905Z,97005.15
2019-04-26T18:40:58.501Z,97016.02
2019-04-26T18:43:46.299Z,97020.14
2019-04-26T18:46:59.032Z,97015.95
2019-04-26T18:50:06.768Z,97012.18
2019-04-26T18:53:39.600Z,97018.00
2019-04-26T18:56:49.690Z,97031.39
2019-04-26T18:59:56.460Z,97047.67
2019-04-26T19:03:03.052Z,97066.64
2019-04-26T19:06:09.674Z,97071.01
2019-04-26T19:09:18.697Z,97063.90
2019-04-26T19:12:27.111Z,97081.37
2019-04-26T19:15:51.695Z,97093.69
2019-04-26T19:19:22.588Z,97093.61
2019-04-26T19:22:22.540Z,97096.49
2019-04-26T19:25:33.258Z,97096.84
2019-04-26T19:28:39.929Z,97103.89
2019-04-26T19:31:46.282Z,97108.75
2019-04-26T19:34:52.886Z,97114.73
2019-04-26T19:37:59.520Z,97115.15
2019-04-26T19:41:06.124Z,97117.94
2019-04-26T19:44:14.739Z,97102.02
2019-04-26T19:47:35.435Z,97111.54
2019-04-26T19:50:50.192Z,97120.72
2019-04-26T19:54:02.753Z,97138.79
2019-04-26T19:57:38.870Z,97149.47
2019-04-26T20:00:46.510Z,97159.41
2019-04-26T20:03:55.049Z,97156.30
2019-04-26T20:07:01.257Z,97171.52
2019-04-26T20:10:08.261Z,97193.05
2019-04-26T20:13:16.639Z,97215.22
2019-04-26T20:16:25.821Z,97215.75
2019-04-26T20:19:37.305Z,97204.14
2019-04-26T20:22:42.137Z,97192.09
2019-04-26T20:25:52.763Z,97177.80
2019-04-26T20:28:58.946Z,97163.23
2019-04-26T20:32:24.025Z,97150.77
2019-04-26T20:35:31.852Z,97137.02
2019-04-26T20:38:45.540Z,97146.14
2019-04-26T20:41:46.854Z,97154.80
2019-04-26T20:44:53.882Z,97159.95
2019-04-26T20:48:02.230Z,97146.86
2019-04-26T20:51:11.023Z,97130.30
2019-04-26T20:54:17.435Z,97120.68
2019-04-26T20:57:26.631Z,97136.04
2019-04-26T21:00:36.516Z,97141.02
2019-04-26T21:03:45.888Z,97130.83
2019-04-26T21:06:52.050Z,97120.14
2019-04-26T21:09:59.507Z,97115.80
2019-04-26T21:13:06.558Z,97125.16
2019-04-26T21:16:15.519Z,97126.77
2019-04-26T21:19:22.030Z,97122.52
2019-04-26T21:22:28.931Z,97112.77
2019-04-26T21:25:56.296Z,97112.58
2019-04-26T21:29:33.622Z,97114.63
2019-04-26T21:33:03.500Z,97116.66
2019-04-26T21:36:23.224Z,97118.31
2019-04-26T21:39:49.899Z,97124.55
2019-04-26T21:42:59.550Z,97140.17
2019-04-26T21:46:19.378Z,97119.53
2019-04-26T21:49:39.932Z,97119.22
2019-04-26T21:52:46.563Z,97111.84
2019-04-26T21:55:54.642Z,97113.25
2019-04-26T21:59:01.227Z,97123.00
2019-04-26T22:02:08.337Z,97118.51
2019-04-26T22:05:17.969Z,97112.11
2019-04-26T22:08:30.972Z,97098.50
2019-04-26T22:11:36.153Z,97093.72
2019-04-26T22:14:46.444Z,97109.77
2019-04-26T22:17:56.042Z,97129.45
2019-04-26T22:21:08.834Z,97144.98
2019-04-26T22:24:23.732Z,97140.31
2019-04-26T22:27:32.070Z,97145.63
2019-04-26T22:30:38.693Z,97151.91
2019-04-26T22:33:45.075Z,97149.91
2019-04-26T22:36:53.543Z,97142.39
2019-04-26T22:39:59.751Z,97132.69
2019-04-26T22:43:44.361Z,97123.62
2019-04-26T22:47:09.864Z,97119.34
2019-04-26T22:50:20.783Z,97130.25
2019-04-26T22:53:25.860Z,97136.24
2019-04-26T22:56:37.136Z,97137.76
2019-04-26T22:59:49.734Z,97132.00
2019-04-26T23:02:53.371Z,97140.16
2019-04-26T23:05:59.952Z,97144.83
2019-04-26T23:09:11.517Z,97142.20
2019-04-26T23:12:34.478Z,97140.22
2019-04-26T23:16:00.643Z,97137.03
2019-04-26T23:19:29.877Z,97136.77
2019-04-26T23:22:36.373Z,97140.73
2019-04-26T23:25:43.504Z,97138.09
2019-04-26T23:28:51.441Z,97132.20
2019-04-26T23:31:59.520Z,97142.38
2019-04-26T23:35:06.366Z,97146.50
2019-04-26T23:38:14.019Z,97149.36
2019-04-26T23:41:20.534Z,97146.45
2019-04-26T23:44:27.000Z,97155.63
2019-04-26T23:47:38.657Z,97139.26
2019-04-26T23:50:43.289Z,97129.52
2019-04-26T23:53:50.495Z,97128.42
2019-04-26T23:56:57.919Z,97128.26
